This is the latest recevied weather packets stored in our database for station/object WA7CUG. If no packets are shown the sender has not sent any weather packets the latest 10 day(s).
| Time | Temp. | Humidity | Pressure | Rain* | Wind** | Luminosity | Snow |
|---|---|---|---|---|---|---|---|
| 1778138168 | 16.67° C | 44% | 1012.4 hPa | 0 mm | - | 0 W/m² | - |
| 1778137864 | 16.67° C | 46% | 1012.5 hPa | 0 mm | - | 0 W/m² | - |
| 1778137561 | 16.67° C | 46% | 1012.4 hPa | 0 mm | - | 0 W/m² | - |
| 1778137257 | 16.11° C | 49% | 1012.5 hPa | 0 mm | - | 0 W/m² | - |
| 1778136954 | 16.67° C | 48% | 1012.2 hPa | 0 mm | - | 0 W/m² | - |
| 1778136651 | 17.78° C | 45% | 1012.1 hPa | 0 mm | - | 0 W/m² | - |
| 1778136349 | 18.89° C | 39% | 1012 hPa | 0 mm | - | 0 W/m² | - |
| 1778136047 | 18.89° C | 40% | 1012 hPa | 0 mm | - | 0 W/m² | - |
| 1778135744 | 18.89° C | 41% | 1011.8 hPa | 0 mm | - | 0 W/m² | - |
| 1778135441 | 18.33° C | 42% | 1011.7 hPa | 0 mm | - | 0 W/m² | - |
| 1778135138 | 18.33° C | 43% | 1011.3 hPa | 0 mm | - | 0 W/m² | - |
| 1778134836 | 18.33° C | 43% | 1011.2 hPa | 0 mm | - | 0 W/m² | - |
| 1778134533 | 18.89° C | 42% | 1011.5 hPa | 0 mm | - | 0 W/m² | - |
| 1778134231 | 18.89° C | 41% | 1011.7 hPa | 0 mm | - | 0 W/m² | - |
| 1778133929 | 18.89° C | 41% | 1011.8 hPa | 0 mm | - | 0 W/m² | - |
| 1778133625 | 18.89° C | 40% | 1011.5 hPa | 0 mm | - | 0 W/m² | - |
| 1778133320 | 19.44° C | 39% | 1011.7 hPa | 0 mm | - | 0 W/m² | - |
| 1778133017 | 19.44° C | 39% | 1011.8 hPa | 0 mm | - | 0 W/m² | - |
| 1778132713 | 19.44° C | 39% | 1011.5 hPa | 0 mm | - | 0 W/m² | - |
| 1778132410 | 20° C | 38% | 1011.5 hPa | 0 mm | - | 0 W/m² | - |
| 1778132108 | 20° C | 37% | 1011.7 hPa | 0 mm | - | 0 W/m² | - |
| 1778131807 | 20.56° C | 36% | 1011.7 hPa | 0 mm | - | 0 W/m² | - |
| 1778131504 | 20.56° C | 36% | 1011.4 hPa | 0 mm | - | 0 W/m² | - |
| 1778131200 | 20.56° C | 34% | 1011.4 hPa | 0 mm | - | 0 W/m² | - |
| 1778130898 | 20.56° C | 34% | 1011.4 hPa | 0 mm | - | 0 W/m² | - |
* Rain latest hour (hover to see other rain measurements)
** Current wind speed in m/s (hover to see current wind gust speed)